Time;durP1;ratioP1;P1;durP2;ratioP2;P2;SDS_P1;SDS_P2;PMS_P1;PMS_P2;Temp;Humidity;BMP_temperature;BMP_pressure;BME280_temperature;BME280_humidity;BME280_pressure;Samples;Min_cycle;Max_cycle;Signal;HPM_P1;HPM_P2
2021/03/01 00:01:59;;;;;;;1.50;0.20;;;4.60;99.90;;;;;;5106478;28;20179;-63
2021/03/01 00:04:24;;;;;;;2.00;0.70;;;4.60;99.90;;;;;;5103103;28;20192;-65
2021/03/01 00:06:50;;;;;;;1.50;0.20;;;4.70;99.90;;;;;;5105941;28;20693;-63
2021/03/01 00:09:15;;;;;;;1.60;0.57;;;4.60;99.90;;;;;;5100857;28;20262;-63
2021/03/01 00:11:41;;;;;;;1.50;0.20;;;4.60;99.90;;;;;;5093354;28;20184;-64
2021/03/01 00:14:06;;;;;;;1.50;0.20;;;4.60;99.90;;;;;;5107905;28;20191;-63
2021/03/01 00:16:32;;;;;;;3.13;2.57;;;4.60;99.90;;;;;;5113548;28;20700;-64
2021/03/01 00:18:58;;;;;;;1.50;0.20;;;4.60;99.90;;;;;;5126645;28;20210;-64
2021/03/01 00:21:23;;;;;;;1.50;0.20;;;4.50;99.90;;;;;;5121323;28;20186;-64
2021/03/01 00:23:49;;;;;;;1.50;0.20;;;4.50;99.90;;;;;;5119441;28;20709;-64
2021/03/01 00:26:14;;;;;;;1.53;0.20;;;4.50;99.90;;;;;;5126345;28;20219;-63
2021/03/01 00:28:41;;;;;;;1.50;0.30;;;4.50;99.90;;;;;;5129967;28;20179;-69
2021/03/01 00:31:07;;;;;;;1.50;0.20;;;4.60;99.90;;;;;;5122022;28;20185;-64
2021/03/01 00:33:33;;;;;;;1.50;0.20;;;4.50;99.90;;;;;;5127843;28;20215;-65
2021/03/01 00:35:58;;;;;;;1.50;0.20;;;4.50;99.90;;;;;;5112466;28;20262;-66
2021/03/01 00:38:24;;;;;;;1.50;0.20;;;4.50;99.90;;;;;;5115083;28;20206;-68
2021/03/01 00:40:49;;;;;;;1.50;0.20;;;4.40;99.90;;;;;;5119178;28;20185;-65
2021/03/01 00:43:15;;;;;;;1.50;0.20;;;4.40;99.90;;;;;;5112506;28;20521;-65
2021/03/01 00:45:40;;;;;;;1.50;0.20;;;4.40;99.90;;;;;;5106813;28;20172;-66
2021/03/01 00:48:06;;;;;;;1.50;0.20;;;4.40;99.90;;;;;;5122988;28;20171;-65
2021/03/01 00:50:32;;;;;;;1.70;0.57;;;4.40;99.90;;;;;;5106567;28;20192;-65
2021/03/01 00:52:57;;;;;;;1.50;0.20;;;4.40;99.90;;;;;;5094801;28;20486;-66
2021/03/01 00:55:23;;;;;;;1.50;0.20;;;4.30;99.90;;;;;;5111042;28;20210;-65
2021/03/01 00:57:48;;;;;;;1.50;0.20;;;4.40;99.90;;;;;;5096401;28;20633;-66
2021/03/01 01:00:16;;;;;;;1.50;0.20;;;4.30;99.90;;;;;;5111246;28;20189;-65
2021/03/01 01:02:42;;;;;;;1.50;0.20;;;4.30;99.90;;;;;;5107923;28;20198;-65
2021/03/01 01:05:08;;;;;;;1.70;0.57;;;4.30;99.90;;;;;;5107542;28;20187;-65
2021/03/01 01:07:34;;;;;;;1.50;0.20;;;4.30;99.90;;;;;;5117040;28;20767;-65
2021/03/01 01:09:59;;;;;;;1.50;0.20;;;4.20;99.90;;;;;;5115455;28;20391;-65
2021/03/01 01:12:25;;;;;;;1.50;0.20;;;4.20;99.90;;;;;;5105529;28;20303;-64
2021/03/01 01:14:51;;;;;;;1.50;0.20;;;4.10;99.90;;;;;;5117960;28;20193;-65
2021/03/01 01:17:16;;;;;;;1.80;0.65;;;4.00;99.90;;;;;;5112681;28;20175;-64
2021/03/01 01:19:42;;;;;;;1.50;0.20;;;3.90;99.90;;;;;;5100544;28;20195;-65
2021/03/01 01:22:07;;;;;;;1.50;0.20;;;3.90;99.90;;;;;;5093004;28;20172;-65
2021/03/01 01:24:33;;;;;;;1.50;0.20;;;3.80;99.90;;;;;;5089725;28;20176;-64
2021/03/01 01:26:58;;;;;;;1.50;0.20;;;3.70;99.90;;;;;;5092162;28;20238;-64
2021/03/01 01:29:24;;;;;;;1.60;0.20;;;3.60;99.90;;;;;;5102043;28;20183;-65
2021/03/01 01:31:50;;;;;;;1.93;0.57;;;3.50;99.90;;;;;;5090096;28;20208;-65
2021/03/01 01:34:15;;;;;;;1.57;0.20;;;3.50;99.90;;;;;;5099022;28;20207;-64
2021/03/01 01:36:41;;;;;;;5.27;4.83;;;3.50;99.90;;;;;;5105550;28;20214;-64
2021/03/01 01:39:06;;;;;;;1.50;0.20;;;3.50;99.90;;;;;;5095493;28;20273;-64
2021/03/01 01:41:32;;;;;;;1.60;0.30;;;3.50;99.90;;;;;;5102015;28;20197;-64
2021/03/01 01:43:57;;;;;;;1.57;0.20;;;3.50;99.90;;;;;;5076233;28;20204;-65
2021/03/01 01:46:23;;;;;;;1.50;0.20;;;3.50;99.90;;;;;;5094780;28;20191;-64
2021/03/01 01:48:48;;;;;;;2.10;0.97;;;3.50;99.90;;;;;;5096878;28;20265;-65
2021/03/01 01:51:14;;;;;;;1.50;0.20;;;3.50;99.90;;;;;;5100176;28;20662;-64
2021/03/01 01:53:40;;;;;;;1.50;0.20;;;3.50;99.90;;;;;;5091153;28;20214;-65
2021/03/01 01:56:06;;;;;;;1.53;0.30;;;3.50;99.90;;;;;;5103066;28;20272;-64
2021/03/01 01:58:32;;;;;;;1.57;0.30;;;3.40;99.90;;;;;;5094308;28;20211;-64
2021/03/01 02:00:58;;;;;;;1.50;0.20;;;3.40;99.90;;;;;;5082649;28;20211;-64
2021/03/01 02:03:35;;;;;;;1.60;0.43;;;3.40;99.90;;;;;;5097417;28;20196;-64
2021/03/01 02:06:33;;;;;;;1.55;0.20;;;3.50;99.90;;;;;;5092973;28;20637;-64
2021/03/01 02:09:15;;;;;;;1.52;0.20;;;3.50;99.90;;;;;;5094312;28;20188;-64
2021/03/01 02:12:15;;;;;;;1.60;0.50;;;3.50;99.90;;;;;;5095337;28;20548;-64
2021/03/01 02:14:44;;;;;;;1.52;0.20;;;3.50;99.90;;;;;;5096090;28;20180;-64
2021/03/01 02:17:12;;;;;;;1.60;0.47;;;3.50;99.90;;;;;;5072346;28;20215;-64
2021/03/01 02:19:38;;;;;;;1.77;0.40;;;3.40;99.90;;;;;;5077708;28;20229;-65
2021/03/01 02:22:04;;;;;;;1.50;0.20;;;3.40;99.90;;;;;;5104495;28;20179;-65
2021/03/01 02:24:37;;;;;;;1.60;0.50;;;3.40;99.90;;;;;;5076370;28;20195;-64
2021/03/01 02:27:03;;;;;;;1.55;0.20;;;3.50;99.90;;;;;;5098557;28;20212;-64
2021/03/01 02:29:30;;;;;;;1.50;0.20;;;3.40;99.90;;;;;;5092567;28;20199;-64
2021/03/01 02:32:00;;;;;;;1.60;0.30;;;3.30;99.90;;;;;;5087053;28;20643;-64
2021/03/01 02:34:30;;;;;;;1.52;0.20;;;3.20;99.90;;;;;;5098161;28;20285;-65
2021/03/01 02:36:59;;;;;;;1.60;0.50;;;3.20;99.90;;;;;;5112836;28;20191;-64
2021/03/01 02:39:27;;;;;;;1.60;0.20;;;3.20;99.90;;;;;;5098166;28;20187;-64
2021/03/01 02:41:54;;;;;;;1.55;0.20;;;3.20;99.90;;;;;;5101924;28;20320;-64
2021/03/01 02:44:20;;;;;;;1.50;0.20;;;3.20;99.90;;;;;;5101325;28;20279;-64
2021/03/01 02:46:47;;;;;;;1.50;0.20;;;3.20;99.90;;;;;;5098407;28;20279;-65
2021/03/01 02:49:15;;;;;;;1.60;0.50;;;3.20;99.90;;;;;;5108129;28;20171;-65
2021/03/01 02:51:42;;;;;;;1.50;0.20;;;3.20;99.90;;;;;;5086403;28;20266;-64
2021/03/01 02:54:08;;;;;;;1.50;0.20;;;3.20;99.90;;;;;;5075109;28;20199;-64
2021/03/01 02:56:35;;;;;;;1.60;0.30;;;3.20;99.90;;;;;;5101289;28;20248;-64
2021/03/01 02:59:01;;;;;;;1.52;0.20;;;3.20;99.90;;;;;;5082127;28;20253;-64
2021/03/01 03:01:28;;;;;;;1.58;0.20;;;3.10;99.90;;;;;;5078533;28;20188;-64
2021/03/01 03:03:55;;;;;;;1.50;0.20;;;3.10;99.90;;;;;;5103737;28;20196;-64
2021/03/01 03:06:25;;;;;;;1.55;0.20;;;3.00;99.90;;;;;;5091272;28;20194;-64
2021/03/01 03:08:52;;;;;;;1.55;0.20;;;3.00;99.90;;;;;;5090183;28;20181;-64
2021/03/01 03:11:25;;;;;;;1.50;0.20;;;3.00;99.90;;;;;;5087360;28;20202;-64
2021/03/01 03:13:51;;;;;;;1.50;0.22;;;3.00;99.90;;;;;;5097786;28;20207;-64
2021/03/01 03:16:21;;;;;;;1.57;0.20;;;2.90;99.90;;;;;;5090885;28;20273;-64
2021/03/01 03:18:48;;;;;;;1.50;0.20;;;2.90;99.90;;;;;;5103238;28;20500;-65
2021/03/01 03:21:13;;;;;;;1.60;0.30;;;2.80;99.90;;;;;;5091635;28;20168;-64
2021/03/01 03:23:39;;;;;;;1.50;0.20;;;2.90;99.90;;;;;;5105779;28;20201;-65
2021/03/01 03:26:05;;;;;;;1.50;0.20;;;2.90;99.90;;;;;;5120171;28;20428;-65
2021/03/01 03:28:31;;;;;;;1.50;0.20;;;2.90;99.90;;;;;;5099299;28;20453;-64
2021/03/01 03:30:56;;;;;;;1.50;0.20;;;2.90;99.90;;;;;;5080274;28;20191;-64
2021/03/01 03:33:22;;;;;;;1.53;0.30;;;2.90;99.90;;;;;;5095573;28;20734;-64
2021/03/01 03:35:48;;;;;;;1.70;0.83;;;3.00;99.90;;;;;;5089578;28;20607;-64
2021/03/01 03:38:21;;;;;;;1.53;0.20;;;3.00;99.90;;;;;;5090552;28;20180;-64
2021/03/01 03:40:50;;;;;;;1.52;0.20;;;3.00;99.90;;;;;;5086341;28;20192;-64
2021/03/01 03:43:15;;;;;;;3.75;1.38;;;3.00;99.90;;;;;;5085756;28;20667;-64
2021/03/01 03:45:42;;;;;;;1.50;0.20;;;3.00;99.90;;;;;;5099301;28;20271;-64
2021/03/01 03:48:09;;;;;;;1.50;0.20;;;3.00;99.90;;;;;;5097764;28;20447;-64
2021/03/01 03:50:35;;;;;;;22.63;21.50;;;3.00;99.90;;;;;;5082606;28;20184;-64
2021/03/01 03:53:14;;;;;;;1.70;0.60;;;3.00;99.90;;;;;;5096802;28;20202;-64
2021/03/01 03:55:45;;;;;;;1.52;0.20;;;3.00;99.90;;;;;;5097559;28;20217;-64
2021/03/01 03:58:13;;;;;;;1.52;0.20;;;3.00;99.90;;;;;;5086005;28;20191;-64
2021/03/01 04:00:40;;;;;;;1.80;0.77;;;2.90;99.90;;;;;;5087857;28;20264;-64
2021/03/01 04:03:10;;;;;;;1.52;0.20;;;3.00;99.90;;;;;;5096702;28;20562;-64
2021/03/01 04:05:39;;;;;;;1.52;0.20;;;3.00;99.90;;;;;;5093462;28;20266;-64
2021/03/01 04:08:09;;;;;;;1.52;0.20;;;3.00;99.90;;;;;;5102341;28;20662;-64
2021/03/01 04:10:36;;;;;;;1.50;0.20;;;3.00;99.90;;;;;;5097818;28;20533;-65
2021/03/01 04:13:06;;;;;;;1.58;0.20;;;3.00;99.90;;;;;;5090884;28;20735;-64
2021/03/01 04:15:32;;;;;;;1.50;0.20;;;3.00;99.90;;;;;;5082362;28;20212;-64
2021/03/01 04:18:00;;;;;;;1.50;0.20;;;3.10;99.90;;;;;;5094741;28;20188;-64
2021/03/01 04:20:26;;;;;;;1.52;0.20;;;3.10;99.90;;;;;;5095962;28;20263;-64
2021/03/01 04:22:56;;;;;;;2.28;1.23;;;3.10;99.90;;;;;;5099155;28;20222;-64
2021/03/01 04:25:22;;;;;;;1.52;0.30;;;3.10;99.90;;;;;;5095781;28;20195;-64
2021/03/01 04:27:49;;;;;;;1.52;0.20;;;3.10;99.90;;;;;;5095250;28;20211;-64
2021/03/01 04:30:15;;;;;;;1.50;0.20;;;3.20;99.90;;;;;;5095884;28;20715;-64
2021/03/01 04:32:45;;;;;;;1.50;0.20;;;3.10;99.90;;;;;;5088740;28;20208;-65
2021/03/01 04:35:17;;;;;;;1.50;0.20;;;3.20;99.90;;;;;;5093061;28;20190;-64
2021/03/01 04:37:43;;;;;;;1.52;0.20;;;3.20;99.90;;;;;;5096324;28;20175;-64
2021/03/01 04:40:09;;;;;;;1.57;0.20;;;3.20;99.90;;;;;;5087683;28;20677;-64
2021/03/01 04:42:37;;;;;;;1.55;0.20;;;3.10;99.90;;;;;;5094311;28;20196;-64
2021/03/01 04:45:04;;;;;;;1.52;0.20;;;3.00;99.90;;;;;;5093247;28;20182;-64
2021/03/01 04:47:30;;;;;;;1.55;0.20;;;3.00;99.90;;;;;;5092847;28;20175;-64
2021/03/01 04:49:58;;;;;;;1.50;0.20;;;2.90;99.90;;;;;;5093332;28;20245;-65
2021/03/01 04:52:25;;;;;;;1.55;0.20;;;3.00;99.90;;;;;;5100190;28;20216;-65
2021/03/01 04:54:52;;;;;;;1.60;0.40;;;3.00;99.90;;;;;;5091876;28;20646;-65
2021/03/01 04:57:19;;;;;;;1.50;0.20;;;2.90;99.90;;;;;;5113024;28;20219;-65
2021/03/01 04:59:45;;;;;;;1.70;0.47;;;2.90;99.90;;;;;;5123400;28;20213;-65
2021/03/01 05:02:12;;;;;;;1.70;0.60;;;2.90;99.90;;;;;;5119868;28;20168;-65
2021/03/01 05:04:38;;;;;;;1.52;0.20;;;2.90;99.90;;;;;;5124561;28;20296;-65
2021/03/01 05:07:05;;;;;;;1.60;0.40;;;2.90;99.90;;;;;;5123228;28;20188;-65
2021/03/01 05:09:36;;;;;;;1.50;0.20;;;2.90;99.90;;;;;;5118156;28;20192;-65
2021/03/01 05:12:02;;;;;;;1.58;0.28;;;2.90;99.90;;;;;;5123003;28;20205;-64
2021/03/01 05:14:28;;;;;;;1.50;0.20;;;3.00;99.90;;;;;;5089685;28;20182;-70
2021/03/01 05:16:53;;;;;;;1.50;0.20;;;3.00;99.90;;;;;;5116088;28;20516;-64
2021/03/01 05:19:19;;;;;;;1.50;0.20;;;3.00;99.90;;;;;;5120575;28;20202;-64
2021/03/01 05:21:44;;;;;;;1.50;0.20;;;3.00;99.90;;;;;;5115775;28;20172;-64
2021/03/01 05:24:10;;;;;;;1.50;0.20;;;3.00;99.90;;;;;;5123780;28;20217;-65
2021/03/01 05:26:36;;;;;;;1.60;0.30;;;2.90;99.90;;;;;;5124715;28;20198;-64
2021/03/01 05:29:05;;;;;;;1.50;0.20;;;2.80;99.90;;;;;;5114599;28;20969;-65
2021/03/01 05:31:31;;;;;;;1.52;0.20;;;2.70;99.90;;;;;;5111148;28;20211;-65
2021/03/01 05:33:57;;;;;;;3.73;2.47;;;2.70;99.90;;;;;;5101324;28;20211;-65
2021/03/01 05:36:23;;;;;;;1.50;0.20;;;2.50;99.90;;;;;;5102805;28;20536;-64
2021/03/01 05:38:49;;;;;;;1.70;0.80;;;2.50;99.90;;;;;;5096550;28;20472;-65
2021/03/01 05:41:18;;;;;;;7.10;2.23;;;2.50;99.90;;;;;;5096929;28;20669;-65
2021/03/01 05:43:46;;;;;;;3.13;2.63;;;2.60;99.90;;;;;;5098549;28;20203;-66
2021/03/01 05:46:12;;;;;;;4.00;3.00;;;2.50;99.90;;;;;;5105786;28;20211;-65
2021/03/01 05:48:40;;;;;;;1.50;0.20;;;2.40;99.90;;;;;;5119834;28;20200;-65
2021/03/01 05:51:06;;;;;;;2.95;1.35;;;2.50;99.90;;;;;;5106226;28;20264;-65
2021/03/01 05:53:37;;;;;;;3.40;1.63;;;2.50;99.90;;;;;;5114608;28;20204;-64
2021/03/01 05:56:04;;;;;;;5.75;2.60;;;2.40;99.90;;;;;;5106274;28;20444;-65
2021/03/01 05:58:30;;;;;;;3.85;2.63;;;2.40;99.90;;;;;;5102774;28;20172;-64
2021/03/01 06:01:01;;;;;;;2.88;1.60;;;2.40;99.90;;;;;;5108533;28;20180;-64
2021/03/01 06:03:34;;;;;;;1.60;0.40;;;2.30;99.90;;;;;;5113713;28;20222;-64
2021/03/01 06:06:00;;;;;;;2.88;2.05;;;2.40;99.90;;;;;;5113845;28;20189;-64
2021/03/01 06:08:26;;;;;;;1.77;0.70;;;2.40;99.90;;;;;;5116647;28;20190;-64
2021/03/01 06:10:56;;;;;;;1.60;0.35;;;2.40;99.90;;;;;;5111895;28;20480;-64
2021/03/01 06:13:23;;;;;;;1.52;0.20;;;2.40;99.90;;;;;;5121256;28;20208;-64
2021/03/01 06:15:49;;;;;;;1.58;0.20;;;2.50;99.90;;;;;;5109586;28;20199;-64
2021/03/01 06:18:15;;;;;;;1.60;0.40;;;2.50;99.90;;;;;;5095685;28;20184;-65
2021/03/01 06:20:42;;;;;;;2.00;0.40;;;2.50;99.90;;;;;;5104450;28;20466;-64
2021/03/01 06:23:08;;;;;;;1.60;0.60;;;2.50;99.90;;;;;;5108378;28;20302;-64
2021/03/01 06:25:34;;;;;;;1.60;0.20;;;2.50;99.90;;;;;;5093688;28;20215;-64
2021/03/01 06:28:05;;;;;;;3.35;2.03;;;2.60;99.90;;;;;;5099703;28;20184;-64
2021/03/01 06:30:36;;;;;;;3.88;0.82;;;2.50;99.90;;;;;;5096788;28;20195;-64
2021/03/01 06:33:11;;;;;;;1.50;0.20;;;2.50;99.90;;;;;;5090799;28;20204;-64
2021/03/01 06:35:48;;;;;;;1.50;0.20;;;2.50;99.90;;;;;;5100234;28;20198;-64
2021/03/01 06:38:34;;;;;;;2.00;1.30;;;2.60;99.90;;;;;;5112271;28;20175;-64
2021/03/01 06:41:14;;;;;;;1.52;0.20;;;2.60;99.90;;;;;;5093573;28;20583;-64
2021/03/01 06:43:55;;;;;;;1.52;0.20;;;2.60;99.90;;;;;;5097473;28;20196;-64
2021/03/01 06:46:22;;;;;;;1.50;0.20;;;2.60;99.90;;;;;;5101574;28;20184;-64
2021/03/01 06:48:48;;;;;;;2.15;1.02;;;2.60;99.90;;;;;;5089874;28;20211;-65
2021/03/01 06:51:14;;;;;;;1.53;0.20;;;2.70;99.90;;;;;;5099102;28;20187;-64
2021/03/01 06:53:40;;;;;;;8.37;3.30;;;2.80;99.90;;;;;;5098382;28;20207;-64
2021/03/01 06:56:16;;;;;;;1.57;0.20;;;2.60;99.90;;;;;;5090217;28;20972;-64
2021/03/01 06:58:44;;;;;;;1.98;0.95;;;2.60;99.90;;;;;;5092606;28;20540;-64
2021/03/01 07:01:18;;;;;;;1.65;0.43;;;2.70;99.90;;;;;;5101100;28;20172;-64
2021/03/01 07:03:49;;;;;;;5.10;1.15;;;2.70;99.90;;;;;;5092083;28;20667;-64
2021/03/01 07:06:15;;;;;;;1.58;0.20;;;2.70;99.90;;;;;;5088015;28;20652;-64
2021/03/01 07:08:46;;;;;;;1.55;0.20;;;2.70;99.90;;;;;;5082147;28;20236;-65
2021/03/01 07:11:31;;;;;;;1.52;0.20;;;2.70;99.90;;;;;;5088326;28;20182;-64
2021/03/01 07:14:06;;;;;;;1.60;0.30;;;2.80;99.90;;;;;;5092753;28;20200;-64
2021/03/01 07:16:47;;;;;;;2.55;0.82;;;2.80;99.90;;;;;;5091018;28;20219;-64
2021/03/01 07:19:19;;;;;;;1.92;0.90;;;2.90;99.90;;;;;;5096440;28;20183;-64
2021/03/01 07:21:50;;;;;;;29.50;4.15;;;2.90;99.90;;;;;;5091231;28;20180;-64
2021/03/01 07:24:21;;;;;;;1.90;0.80;;;2.90;99.90;;;;;;5089357;28;20246;-64
2021/03/01 07:26:48;;;;;;;4.53;1.95;;;2.90;99.90;;;;;;5091667;28;20200;-64
2021/03/01 07:29:19;;;;;;;1.58;0.20;;;2.90;99.90;;;;;;5089902;28;20207;-64
2021/03/01 07:32:00;;;;;;;1.55;0.20;;;3.00;99.90;;;;;;5089240;28;20638;-64
2021/03/01 07:34:26;;;;;;;1.60;0.50;;;3.10;99.90;;;;;;5095849;28;20202;-63
2021/03/01 07:36:59;;;;;;;1.57;0.20;;;3.10;99.90;;;;;;5092245;28;20200;-63
2021/03/01 07:39:26;;;;;;;1.52;0.20;;;3.10;99.90;;;;;;5093122;28;20516;-62
2021/03/01 07:41:54;;;;;;;1.80;0.98;;;3.10;99.90;;;;;;5090091;28;20669;-63
2021/03/01 07:44:33;;;;;;;1.75;0.57;;;3.10;99.90;;;;;;5094953;28;20214;-63
2021/03/01 07:47:02;;;;;;;1.60;0.47;;;3.20;99.90;;;;;;5101456;28;20180;-63
2021/03/01 07:49:48;;;;;;;5.35;3.72;;;3.20;99.90;;;;;;5098455;28;20715;-62
2021/03/01 07:52:19;;;;;;;1.55;0.20;;;3.20;99.90;;;;;;5089356;28;20186;-62
2021/03/01 07:54:53;;;;;;;4.93;1.73;;;3.20;99.90;;;;;;5094037;28;20179;-62
2021/03/01 07:57:20;;;;;;;2.00;1.15;;;3.30;99.90;;;;;;5092605;28;20557;-62
2021/03/01 07:59:46;;;;;;;1.55;0.20;;;3.40;99.90;;;;;;5088300;28;20840;-62
2021/03/01 08:02:24;;;;;;;1.57;0.20;;;3.40;99.90;;;;;;5097055;28;20205;-62
2021/03/01 08:04:54;;;;;;;5.82;3.50;;;3.40;99.90;;;;;;5105290;28;20725;-62
2021/03/01 08:07:42;;;;;;;7.63;3.53;;;3.50;99.90;;;;;;5086852;28;20202;-62
2021/03/01 08:10:16;;;;;;;1.55;0.20;;;3.50;99.90;;;;;;5099272;28;20735;-66
2021/03/01 08:12:41;;;;;;;1.52;0.20;;;3.50;99.90;;;;;;5092544;28;20207;-66
2021/03/01 08:15:08;;;;;;;1.60;0.27;;;3.50;99.90;;;;;;5087742;28;20209;-68
2021/03/01 08:17:39;;;;;;;2.22;0.70;;;3.60;99.90;;;;;;5091172;28;20176;-68
2021/03/01 08:20:04;;;;;;;1.60;0.20;;;3.60;99.90;;;;;;5103476;28;20236;-65
2021/03/01 08:22:30;;;;;;;3.10;1.27;;;3.70;99.90;;;;;;5096599;28;20615;-65
2021/03/01 08:24:57;;;;;;;1.50;0.20;;;3.80;99.90;;;;;;5095187;28;20233;-64
2021/03/01 08:27:25;;;;;;;1.95;0.65;;;3.80;99.90;;;;;;5100202;28;20436;-64
2021/03/01 08:30:17;;;;;;;3.05;1.30;;;3.90;99.90;;;;;;5098529;28;20205;-64
2021/03/01 08:33:14;;;;;;;1.58;0.30;;;3.90;99.90;;;;;;5099410;28;20651;-65
2021/03/01 08:35:40;;;;;;;14.70;2.55;;;4.00;99.90;;;;;;5122759;28;20199;-64
2021/03/01 08:38:07;;;;;;;1.55;0.20;;;4.00;99.90;;;;;;5112030;28;20203;-64
2021/03/01 08:40:33;;;;;;;1.60;0.20;;;4.00;99.90;;;;;;5100191;28;20207;-65
2021/03/01 08:43:01;;;;;;;1.60;0.20;;;4.10;99.90;;;;;;5115547;28;20209;-65
2021/03/01 08:45:31;;;;;;;1.55;0.20;;;4.10;99.90;;;;;;5097770;28;20214;-64
2021/03/01 08:47:59;;;;;;;3.67;1.88;;;4.20;99.90;;;;;;5092183;28;20196;-65
2021/03/01 08:50:33;;;;;;;1.50;0.20;;;4.30;99.90;;;;;;5106229;28;20676;-66
2021/03/01 08:52:59;;;;;;;1.55;0.20;;;4.30;99.90;;;;;;5102525;28;20211;-66
2021/03/01 08:55:26;;;;;;;3.90;2.00;;;4.40;99.90;;;;;;5087523;28;20294;-65
2021/03/01 08:57:54;;;;;;;1.58;0.20;;;4.40;99.90;;;;;;5100996;28;20176;-65
2021/03/01 09:00:20;;;;;;;2.58;1.98;;;4.50;99.90;;;;;;5095527;28;20266;-67
2021/03/01 09:02:46;;;;;;;1.60;0.20;;;4.50;99.90;;;;;;5101020;28;20896;-66
2021/03/01 09:05:12;;;;;;;1.50;0.20;;;4.60;99.90;;;;;;5110224;28;20532;-67
2021/03/01 09:07:45;;;;;;;7.10;4.47;;;4.60;99.90;;;;;;5104913;28;20207;-66
2021/03/01 09:10:12;;;;;;;2.05;0.70;;;4.70;99.90;;;;;;5081115;28;20438;-65
2021/03/01 09:12:38;;;;;;;1.58;0.20;;;4.80;99.90;;;;;;5106535;28;20199;-65
2021/03/01 09:15:05;;;;;;;1.80;0.97;;;4.80;99.90;;;;;;5097400;28;20213;-65
2021/03/01 09:17:31;;;;;;;2.33;1.98;;;4.80;99.90;;;;;;5103865;28;20238;-65
2021/03/01 09:19:58;;;;;;;1.53;0.20;;;4.90;99.90;;;;;;5102597;28;20263;-68
2021/03/01 09:22:24;;;;;;;2.72;1.05;;;4.90;99.90;;;;;;5100709;28;20456;-66
2021/03/01 09:24:49;;;;;;;3.13;2.10;;;5.00;99.90;;;;;;5107638;28;20229;-67
2021/03/01 09:27:30;;;;;;;1.60;0.30;;;5.00;99.90;;;;;;5102796;28;20183;-62
2021/03/01 09:30:06;;;;;;;1.60;0.20;;;5.10;99.90;;;;;;5090514;28;20705;-63
2021/03/01 09:32:31;;;;;;;1.58;0.20;;;5.20;99.90;;;;;;5098007;28;20682;-66
2021/03/01 09:34:57;;;;;;;1.53;0.20;;;5.20;99.90;;;;;;5098206;28;20210;-65
2021/03/01 09:37:24;;;;;;;1.67;0.20;;;5.30;99.90;;;;;;5091026;28;20586;-63
2021/03/01 09:39:50;;;;;;;10.50;4.97;;;5.30;99.90;;;;;;5097701;28;20180;-63
2021/03/01 09:42:19;;;;;;;3.80;1.90;;;5.50;99.90;;;;;;5099216;28;20191;-63
2021/03/01 09:44:45;;;;;;;1.58;0.20;;;5.60;99.90;;;;;;5096108;28;20261;-64
2021/03/01 09:47:11;;;;;;;8.27;3.15;;;5.70;99.90;;;;;;5102049;28;20185;-63
2021/03/01 09:49:40;;;;;;;3.17;1.27;;;5.80;99.90;;;;;;5097038;28;20274;-63
2021/03/01 09:52:07;;;;;;;1.60;0.20;;;5.80;99.90;;;;;;5098764;28;20309;-63
2021/03/01 09:54:33;;;;;;;1.50;0.20;;;5.90;99.90;;;;;;5093815;28;20549;-63
2021/03/01 09:57:07;;;;;;;2.25;1.55;;;6.00;99.90;;;;;;5095772;28;20554;-63
2021/03/01 09:59:41;;;;;;;1.60;0.30;;;6.00;99.90;;;;;;5091370;28;20172;-64
2021/03/01 10:02:26;;;;;;;1.60;0.20;;;6.10;99.90;;;;;;5097710;28;20647;-67
2021/03/01 10:05:09;;;;;;;1.50;0.20;;;6.20;99.90;;;;;;5092724;28;20187;-64
2021/03/01 10:07:34;;;;;;;1.52;0.20;;;6.30;99.90;;;;;;5091695;28;20224;-63
2021/03/01 10:10:12;;;;;;;1.60;0.30;;;6.30;99.90;;;;;;5100942;28;20191;-65
2021/03/01 10:12:46;;;;;;;2.35;0.77;;;6.30;99.90;;;;;;5112290;28;20202;-63
2021/03/01 10:15:12;;;;;;;1.70;0.50;;;6.40;99.90;;;;;;5095937;28;20537;-66
2021/03/01 10:17:38;;;;;;;1.50;0.20;;;6.50;99.90;;;;;;5092891;28;20193;-64
2021/03/01 10:20:06;;;;;;;1.60;0.20;;;6.60;99.90;;;;;;5093670;28;20528;-64
2021/03/01 10:22:31;;;;;;;2.17;0.95;;;6.60;99.90;;;;;;5093657;28;20758;-64
2021/03/01 10:24:57;;;;;;;1.53;0.20;;;6.70;99.90;;;;;;5103016;28;20271;-64
2021/03/01 10:27:35;;;;;;;3.93;2.80;;;6.80;99.90;;;;;;5090537;28;20586;-64
2021/03/01 10:30:01;;;;;;;1.50;0.20;;;7.00;99.90;;;;;;5092126;28;20283;-64
2021/03/01 10:32:27;;;;;;;1.50;0.20;;;7.10;99.90;;;;;;5100323;28;20206;-64
2021/03/01 10:34:54;;;;;;;2.23;0.93;;;7.10;99.90;;;;;;5094550;28;20434;-65
2021/03/01 10:37:23;;;;;;;1.55;0.20;;;7.20;99.90;;;;;;5094308;28;20223;-64
2021/03/01 10:39:50;;;;;;;1.70;0.30;;;7.20;99.90;;;;;;5095462;28;20255;-63
2021/03/01 10:42:21;;;;;;;1.53;0.20;;;7.30;99.90;;;;;;5090114;28;20437;-64
2021/03/01 10:44:56;;;;;;;2.73;0.40;;;7.40;99.90;;;;;;5094605;28;20462;-64
2021/03/01 10:47:23;;;;;;;1.50;0.20;;;7.50;99.90;;;;;;5090464;28;20853;-64
2021/03/01 10:49:51;;;;;;;1.60;0.20;;;7.60;99.90;;;;;;5095520;28;20491;-65
2021/03/01 10:52:17;;;;;;;3.40;1.07;;;7.60;99.90;;;;;;5095753;28;20435;-63
2021/03/01 10:54:43;;;;;;;2.20;1.60;;;7.70;99.90;;;;;;5087991;28;20436;-63
2021/03/01 10:57:09;;;;;;;1.57;0.20;;;7.80;99.90;;;;;;5093059;28;20469;-63
2021/03/01 10:59:35;;;;;;;1.60;0.30;;;7.80;99.90;;;;;;5092709;28;20441;-65
2021/03/01 11:02:03;;;;;;;2.67;0.77;;;8.00;99.90;;;;;;5101111;28;20196;-63
2021/03/01 11:04:28;;;;;;;1.50;0.20;;;8.00;99.90;;;;;;5088963;28;20441;-64
2021/03/01 11:06:54;;;;;;;1.53;0.20;;;8.10;99.90;;;;;;5087834;28;20438;-64
2021/03/01 11:09:20;;;;;;;1.50;0.20;;;8.10;99.90;;;;;;5073632;28;20377;-64
2021/03/01 11:11:48;;;;;;;1.60;0.50;;;8.20;99.90;;;;;;5090339;28;20531;-64
2021/03/01 11:14:16;;;;;;;2.17;0.87;;;8.30;99.90;;;;;;5094019;28;20805;-64
2021/03/01 11:16:41;;;;;;;1.53;0.20;;;8.40;99.90;;;;;;5098580;28;20454;-65
2021/03/01 11:19:10;;;;;;;1.50;0.20;;;8.50;99.90;;;;;;5086088;28;20431;-64
2021/03/01 11:21:36;;;;;;;3.13;2.43;;;8.60;99.90;;;;;;5073769;28;20188;-65
2021/03/01 11:24:02;;;;;;;1.60;0.50;;;8.70;99.90;;;;;;5094091;28;20829;-64
2021/03/01 11:26:27;;;;;;;1.60;0.33;;;8.70;99.90;;;;;;5090668;28;20496;-64
2021/03/01 11:28:54;;;;;;;1.57;0.20;;;8.70;99.90;;;;;;5095126;28;20188;-64
2021/03/01 11:31:20;;;;;;;2.00;0.87;;;8.70;99.90;;;;;;5088745;28;20480;-64
2021/03/01 11:33:46;;;;;;;3.93;2.73;;;8.80;99.90;;;;;;5087771;28;20469;-64
2021/03/01 11:36:12;;;;;;;1.57;0.27;;;8.80;99.90;;;;;;5103613;28;20827;-64
2021/03/01 11:38:37;;;;;;;1.80;0.40;;;8.90;98.70;;;;;;5094134;28;20187;-64
2021/03/01 11:41:05;;;;;;;1.57;0.20;;;9.00;98.70;;;;;;5093769;28;20543;-64
2021/03/01 11:43:32;;;;;;;1.60;0.20;;;9.10;98.90;;;;;;5094399;28;20191;-63
2021/03/01 11:45:57;;;;;;;1.53;0.20;;;9.10;98.70;;;;;;5090919;28;20468;-64
2021/03/01 11:48:22;;;;;;;1.50;0.20;;;9.10;98.70;;;;;;5089220;28;21753;-64
2021/03/01 11:50:49;;;;;;;1.60;0.50;;;9.20;99.00;;;;;;5093709;28;20222;-65
2021/03/01 11:53:15;;;;;;;1.53;0.20;;;9.20;99.00;;;;;;5088770;28;20277;-64
2021/03/01 11:55:42;;;;;;;1.50;0.20;;;9.20;98.90;;;;;;5089704;28;20493;-63
2021/03/01 11:58:08;;;;;;;1.60;0.40;;;9.30;99.10;;;;;;5096279;28;20979;-64
2021/03/01 12:00:34;;;;;;;47.20;28.00;;;9.30;98.90;;;;;;5089515;28;20434;-63
2021/03/01 12:03:00;;;;;;;1.50;0.20;;;9.30;98.90;;;;;;5093112;28;20492;-63
2021/03/01 12:05:25;;;;;;;1.50;0.20;;;9.40;99.20;;;;;;5098112;28;20461;-63
2021/03/01 12:07:51;;;;;;;1.50;0.20;;;9.40;98.60;;;;;;5089178;28;20196;-63
2021/03/01 12:10:17;;;;;;;1.60;0.30;;;9.50;98.00;;;;;;5099280;28;20187;-63
2021/03/01 12:12:42;;;;;;;1.50;0.20;;;9.50;98.20;;;;;;5090529;28;20207;-64
2021/03/01 12:15:09;;;;;;;1.60;0.30;;;9.50;98.40;;;;;;5092629;28;20448;-63
2021/03/01 12:17:35;;;;;;;1.73;0.50;;;9.60;98.30;;;;;;5090059;28;20253;-62
2021/03/01 12:20:01;;;;;;;1.50;0.20;;;9.70;97.50;;;;;;5090100;28;20430;-62
2021/03/01 12:22:27;;;;;;;1.50;0.20;;;9.70;97.30;;;;;;5092822;28;20817;-62
2021/03/01 12:24:52;;;;;;;5.30;1.90;;;9.80;97.40;;;;;;5098023;28;20188;-62
2021/03/01 12:27:18;;;;;;;16.40;2.53;;;9.90;97.50;;;;;;5086945;28;20437;-62
2021/03/01 12:29:43;;;;;;;6.13;3.20;;;9.90;97.30;;;;;;5092671;28;20184;-63
2021/03/01 12:32:09;;;;;;;1.50;0.20;;;10.00;96.70;;;;;;5094696;28;20673;-63
2021/03/01 12:34:37;;;;;;;1.70;0.37;;;10.10;96.00;;;;;;5089149;28;20187;-64
2021/03/01 12:37:03;;;;;;;1.50;0.20;;;10.10;95.30;;;;;;5090240;28;20208;-64
2021/03/01 12:39:29;;;;;;;1.50;0.20;;;10.10;95.70;;;;;;5098500;28;20962;-63
2021/03/01 12:41:55;;;;;;;1.60;0.40;;;10.10;95.70;;;;;;5091732;28;20452;-65
2021/03/01 12:44:21;;;;;;;2.53;0.93;;;10.10;95.50;;;;;;5100814;28;20988;-62
2021/03/01 12:46:47;;;;;;;1.50;0.20;;;10.20;96.00;;;;;;5100253;28;20217;-63
2021/03/01 12:49:13;;;;;;;1.57;0.20;;;10.30;95.60;;;;;;5097758;28;20448;-62
2021/03/01 12:51:38;;;;;;;1.57;0.20;;;10.30;95.90;;;;;;5108948;28;20465;-63
2021/03/01 12:54:04;;;;;;;1.57;0.20;;;10.40;95.40;;;;;;5105202;28;20556;-63
2021/03/01 12:56:30;;;;;;;1.60;0.30;;;10.40;95.20;;;;;;5111804;28;20204;-63
2021/03/01 12:58:55;;;;;;;1.50;0.20;;;10.50;95.00;;;;;;5109915;28;20187;-63
2021/03/01 13:01:21;;;;;;;1.87;1.03;;;10.50;95.40;;;;;;5102619;28;20196;-66